createdAt,value
2023-01-31T00:00:55.748Z,2.83
2023-01-31T00:03:26.449Z,2.60
2023-01-31T00:05:56.797Z,2.83
2023-01-31T00:08:29.863Z,3.07
2023-01-31T00:11:02.436Z,2.20
2023-01-31T00:13:33.041Z,3.37
2023-01-31T00:16:03.677Z,2.42
2023-01-31T00:18:34.882Z,2.60
2023-01-31T00:21:11.118Z,2.60
2023-01-31T00:23:46.234Z,2.60
2023-01-31T00:26:20.366Z,3.60
2023-01-31T00:28:52.799Z,2.87
2023-01-31T00:31:24.976Z,2.53
2023-01-31T00:33:56.995Z,3.87
2023-01-31T00:36:30.281Z,2.73
2023-01-31T00:39:06.840Z,2.43
2023-01-31T00:41:39.426Z,3.57
2023-01-31T00:44:10.548Z,2.50
2023-01-31T00:46:42.121Z,2.20
2023-01-31T00:49:12.634Z,2.73
2023-01-31T00:51:43.067Z,2.10
2023-01-31T00:54:16.054Z,3.05
2023-01-31T00:56:46.434Z,2.27
2023-01-31T00:59:17.008Z,2.53
2023-01-31T01:01:47.620Z,2.30
2023-01-31T01:04:18.106Z,2.35
2023-01-31T01:06:50.531Z,2.30
2023-01-31T01:09:23.718Z,2.13
2023-01-31T01:11:54.605Z,2.10
2023-01-31T01:14:25.202Z,2.20
2023-01-31T01:16:58.430Z,2.15
2023-01-31T01:19:29.149Z,2.70
2023-01-31T01:21:59.582Z,2.43
2023-01-31T01:24:32.984Z,2.17
2023-01-31T01:27:06.701Z,2.73
2023-01-31T01:29:37.181Z,2.73
2023-01-31T01:32:08.756Z,2.13
2023-01-31T01:34:39.383Z,3.30
2023-01-31T01:37:20.162Z,2.70
2023-01-31T01:39:54.207Z,3.17
2023-01-31T01:42:27.747Z,2.87
2023-01-31T01:45:00.629Z,2.33
2023-01-31T01:47:40.400Z,2.33
2023-01-31T01:50:17.724Z,2.10
2023-01-31T01:52:53.851Z,2.33
2023-01-31T01:55:36.351Z,2.40
2023-01-31T01:58:14.094Z,2.10
2023-01-31T02:00:46.061Z,2.47
2023-01-31T02:03:18.100Z,3.83
2023-01-31T02:05:52.632Z,2.63
2023-01-31T02:08:26.783Z,3.03
2023-01-31T02:11:05.710Z,2.07
2023-01-31T02:13:36.476Z,1.80
2023-01-31T02:16:07.322Z,2.03
2023-01-31T02:18:38.119Z,2.25
2023-01-31T02:22:01.321Z,2.37
2023-01-31T02:25:22.702Z,1.90
2023-01-31T02:28:40.393Z,2.60
2023-01-31T02:31:55.086Z,2.73
2023-01-31T02:34:40.643Z,2.10
2023-01-31T02:37:23.382Z,3.00
2023-01-31T02:40:04.375Z,2.10
2023-01-31T02:42:48.966Z,1.92
2023-01-31T02:45:27.888Z,2.50
2023-01-31T02:48:12.945Z,2.13
2023-01-31T02:51:00.880Z,2.40
2023-01-31T02:53:37.573Z,2.13
2023-01-31T02:56:15.068Z,2.60
2023-01-31T02:58:49.490Z,2.30
2023-01-31T03:01:28.065Z,2.73
2023-01-31T03:04:01.782Z,2.10
2023-01-31T03:07:00.318Z,2.20
2023-01-31T03:09:44.332Z,2.28
2023-01-31T03:12:41.333Z,2.40
2023-01-31T03:15:56.780Z,2.00
2023-01-31T03:18:32.686Z,1.93
2023-01-31T03:21:11.430Z,3.63
2023-01-31T03:23:47.230Z,2.23
2023-01-31T03:26:20.391Z,2.90
2023-01-31T03:28:57.254Z,2.40
2023-01-31T03:31:33.047Z,2.70
2023-01-31T03:34:11.542Z,17.03
2023-01-31T03:36:50.070Z,14.53
2023-01-31T03:39:41.933Z,2.53
2023-01-31T03:42:22.507Z,2.07
2023-01-31T03:45:02.015Z,2.07
2023-01-31T03:47:38.792Z,2.33
2023-01-31T03:50:17.535Z,2.37
2023-01-31T03:52:55.529Z,2.50
2023-01-31T03:55:38.759Z,2.70
2023-01-31T03:58:11.554Z,2.33
2023-01-31T04:00:46.547Z,2.53
2023-01-31T04:03:23.796Z,2.70
2023-01-31T04:05:54.381Z,1.90
2023-01-31T04:08:25.652Z,3.38
2023-01-31T04:11:07.927Z,2.77
2023-01-31T04:13:38.508Z,3.07
2023-01-31T04:16:11.259Z,2.55
2023-01-31T04:18:41.684Z,8.77
2023-01-31T04:21:12.107Z,5.77
2023-01-31T04:23:42.408Z,2.47
2023-01-31T04:26:15.323Z,2.90
2023-01-31T04:28:45.662Z,2.20
2023-01-31T04:31:16.094Z,2.90
2023-01-31T04:33:46.587Z,2.22
2023-01-31T04:36:16.959Z,2.57
2023-01-31T04:38:47.292Z,2.53
2023-01-31T04:41:20.430Z,2.23
2023-01-31T04:43:50.765Z,2.77
2023-01-31T04:46:21.514Z,3.53
2023-01-31T04:48:51.948Z,2.17
2023-01-31T04:51:22.422Z,2.13
2023-01-31T04:53:52.732Z,2.57
2023-01-31T04:56:25.819Z,2.07
2023-01-31T04:58:56.139Z,5.43
2023-01-31T05:01:26.894Z,9.30
2023-01-31T05:03:57.312Z,2.55
2023-01-31T05:06:27.628Z,2.57
2023-01-31T05:09:01.469Z,2.00
2023-01-31T05:11:34.446Z,2.42
2023-01-31T05:14:04.945Z,2.50
2023-01-31T05:16:35.317Z,3.00
2023-01-31T05:19:05.729Z,2.00
2023-01-31T05:21:55.027Z,2.10
2023-01-31T05:24:25.582Z,1.80
2023-01-31T05:27:01.310Z,2.80
2023-01-31T05:29:34.089Z,3.80
2023-01-31T05:32:05.998Z,1.83
2023-01-31T05:34:36.298Z,2.43
2023-01-31T05:37:07.177Z,2.10
2023-01-31T05:39:37.621Z,2.45
2023-01-31T05:42:10.578Z,2.57
2023-01-31T05:44:40.969Z,2.47
2023-01-31T05:47:11.309Z,2.10
2023-01-31T05:49:41.796Z,2.20
2023-01-31T05:52:12.108Z,2.63
2023-01-31T05:54:42.375Z,2.83
2023-01-31T05:57:15.978Z,2.00
2023-01-31T05:59:46.415Z,3.63
2023-01-31T06:02:17.087Z,3.13
2023-01-31T06:04:47.400Z,2.07
2023-01-31T06:07:17.847Z,2.20
2023-01-31T06:09:48.500Z,2.25
2023-01-31T06:12:21.497Z,2.58
2023-01-31T06:15:19.130Z,2.00
2023-01-31T06:17:49.709Z,2.50
2023-01-31T06:20:20.360Z,2.13
2023-01-31T06:22:50.695Z,2.70
2023-01-31T06:25:21.657Z,3.17
2023-01-31T06:27:54.749Z,2.65
2023-01-31T06:30:25.338Z,2.37
2023-01-31T06:32:56.411Z,2.55
2023-01-31T06:35:26.935Z,2.45
2023-01-31T06:37:58.716Z,3.03
2023-01-31T06:40:29.388Z,2.50
2023-01-31T06:43:02.849Z,2.42
2023-01-31T06:45:33.345Z,2.53
2023-01-31T06:48:03.620Z,2.50
2023-01-31T06:50:34.026Z,2.47
2023-01-31T06:53:04.280Z,2.53
2023-01-31T06:55:34.616Z,2.90
2023-01-31T06:58:07.511Z,2.63
2023-01-31T07:00:37.885Z,2.10
2023-01-31T07:03:08.201Z,2.37
2023-01-31T07:05:38.543Z,2.77
2023-01-31T07:08:09.300Z,2.23
2023-01-31T07:10:39.811Z,3.97
2023-01-31T07:13:12.842Z,2.28
2023-01-31T07:15:43.236Z,2.60
2023-01-31T07:18:13.522Z,2.60
2023-01-31T07:20:43.921Z,2.43
2023-01-31T07:23:14.207Z,2.37
2023-01-31T07:25:44.564Z,1.87
2023-01-31T07:28:17.740Z,2.80
2023-01-31T07:30:48.665Z,2.77
2023-01-31T07:33:19.096Z,2.17
2023-01-31T07:35:49.729Z,2.40
2023-01-31T07:38:20.205Z,2.95
2023-01-31T07:40:50.452Z,2.87
2023-01-31T07:43:23.788Z,2.13
2023-01-31T07:45:54.125Z,1.80
2023-01-31T07:48:24.785Z,2.10
2023-01-31T07:50:56.300Z,2.00
2023-01-31T07:53:26.667Z,1.85
2023-01-31T07:55:57.509Z,2.73
2023-01-31T07:58:30.666Z,2.30
2023-01-31T08:01:13.500Z,1.80
2023-01-31T08:03:43.849Z,2.22
2023-01-31T08:06:16.068Z,4.60
2023-01-31T08:08:48.212Z,2.10
2023-01-31T08:11:18.551Z,2.30
2023-01-31T08:13:51.469Z,2.03
2023-01-31T08:16:21.952Z,2.10
2023-01-31T08:18:53.037Z,1.83
2023-01-31T08:21:23.674Z,2.03
2023-01-31T08:23:54.085Z,1.88
2023-01-31T08:26:25.972Z,2.17
2023-01-31T08:29:00.235Z,2.40
2023-01-31T08:31:31.803Z,2.03
2023-01-31T08:34:03.313Z,2.20
2023-01-31T08:36:35.895Z,2.20
2023-01-31T08:39:07.741Z,2.10
2023-01-31T08:41:39.496Z,2.70
2023-01-31T08:44:12.437Z,2.42
2023-01-31T08:46:42.943Z,1.75
2023-01-31T08:49:13.367Z,3.08
2023-01-31T08:51:45.308Z,2.90
2023-01-31T08:54:16.337Z,2.28
2023-01-31T08:56:46.684Z,2.30
2023-01-31T08:59:19.700Z,2.47
2023-01-31T09:01:50.009Z,1.67
2023-01-31T09:04:20.401Z,2.30
2023-01-31T09:06:50.683Z,2.50
2023-01-31T09:09:21.278Z,2.00
2023-01-31T09:11:51.631Z,2.00
2023-01-31T09:14:24.605Z,2.20
2023-01-31T09:16:54.946Z,2.42
2023-01-31T09:19:25.591Z,2.03
2023-01-31T09:21:56.265Z,1.95
2023-01-31T09:24:26.679Z,1.88
2023-01-31T09:26:57.346Z,2.00
2023-01-31T09:29:31.025Z,2.00
2023-01-31T09:32:01.437Z,2.55
2023-01-31T09:34:32.201Z,1.85
2023-01-31T09:37:02.647Z,2.10
2023-01-31T09:39:33.267Z,2.28
2023-01-31T09:42:19.769Z,1.88
2023-01-31T09:45:02.550Z,2.20
2023-01-31T09:47:37.352Z,2.60
2023-01-31T09:50:18.043Z,2.28
2023-01-31T09:52:49.103Z,2.25
2023-01-31T09:55:22.230Z,2.63
2023-01-31T09:58:02.638Z,2.50
2023-01-31T10:00:40.803Z,2.65
2023-01-31T10:03:31.805Z,2.60
2023-01-31T10:06:10.393Z,2.25
2023-01-31T10:08:51.255Z,2.60
2023-01-31T10:11:34.987Z,2.28
2023-01-31T10:14:24.139Z,2.45
2023-01-31T10:17:08.284Z,2.35
2023-01-31T10:19:48.461Z,2.55
2023-01-31T10:22:25.195Z,2.60
2023-01-31T10:25:03.503Z,2.10
2023-01-31T10:27:45.459Z,2.70
2023-01-31T10:30:22.273Z,2.28
2023-01-31T10:33:03.891Z,2.08
2023-01-31T10:38:17.176Z,2.55
2023-01-31T10:40:53.401Z,2.38
2023-01-31T10:43:32.911Z,2.97
2023-01-31T10:46:03.948Z,2.70
2023-01-31T10:48:37.018Z,2.38
2023-01-31T10:51:24.487Z,2.70
2023-01-31T10:54:14.555Z,2.10
2023-01-31T10:56:49.124Z,2.80
2023-01-31T10:59:27.041Z,2.40
2023-01-31T11:01:58.640Z,2.08
2023-01-31T11:04:35.208Z,2.45
2023-01-31T11:07:07.068Z,2.53
2023-01-31T11:09:41.365Z,2.55
2023-01-31T11:12:12.340Z,3.17
2023-01-31T11:14:42.762Z,2.03
2023-01-31T11:17:20.902Z,2.50
2023-01-31T11:19:56.099Z,2.13
2023-01-31T11:22:29.606Z,3.50
2023-01-31T11:25:04.181Z,2.60
2023-01-31T11:27:41.503Z,2.65
2023-01-31T11:30:26.274Z,3.45
2023-01-31T11:32:56.892Z,2.88
2023-01-31T11:35:33.117Z,3.67
2023-01-31T11:38:06.977Z,2.40
2023-01-31T11:40:39.791Z,2.90
2023-01-31T11:43:28.648Z,2.60
2023-01-31T11:46:02.574Z,3.20
2023-01-31T11:48:43.492Z,2.80
2023-01-31T11:51:31.027Z,2.95
2023-01-31T11:54:01.412Z,2.85
2023-01-31T11:56:38.230Z,2.70
2023-01-31T11:59:10.874Z,3.47
2023-01-31T12:01:49.864Z,3.65
2023-01-31T12:04:25.032Z,3.70
2023-01-31T12:07:05.300Z,3.10
2023-01-31T12:09:46.695Z,3.63
2023-01-31T12:15:07.966Z,3.08
2023-01-31T12:17:47.700Z,3.60
2023-01-31T12:20:39.896Z,4.40
2023-01-31T12:23:26.559Z,3.13
2023-01-31T12:26:10.297Z,3.83
2023-01-31T12:28:59.695Z,3.72
2023-01-31T12:31:58.445Z,4.05
2023-01-31T12:35:00.747Z,4.15
2023-01-31T12:37:45.296Z,4.47
2023-01-31T12:40:42.881Z,3.63
2023-01-31T12:43:33.783Z,3.22
2023-01-31T12:46:15.834Z,3.97
2023-01-31T12:49:11.476Z,4.60
2023-01-31T12:51:51.599Z,4.38
2023-01-31T12:54:41.916Z,3.75
2023-01-31T12:57:31.205Z,4.10
2023-01-31T13:00:28.903Z,5.05
2023-01-31T13:03:35.777Z,4.40
2023-01-31T13:06:15.543Z,4.95
2023-01-31T13:09:06.884Z,5.00
2023-01-31T13:11:44.945Z,5.00
2023-01-31T13:14:24.478Z,5.22
2023-01-31T13:17:00.320Z,6.10
2023-01-31T13:19:37.951Z,5.15
2023-01-31T13:22:14.717Z,4.43
2023-01-31T13:24:50.454Z,5.97
2023-01-31T13:27:29.280Z,5.00
2023-01-31T13:30:09.195Z,4.82
2023-01-31T13:32:44.972Z,4.47
2023-01-31T13:35:24.938Z,5.63
2023-01-31T13:38:01.024Z,6.90
2023-01-31T13:40:35.409Z,5.38
2023-01-31T13:43:15.852Z,4.88
2023-01-31T13:45:53.859Z,4.30
2023-01-31T13:48:30.984Z,4.25
2023-01-31T13:51:06.491Z,4.45
2023-01-31T13:53:45.836Z,5.03
2023-01-31T13:56:25.893Z,4.70
2023-01-31T13:58:59.037Z,4.18
2023-01-31T14:01:37.771Z,3.80
2023-01-31T14:04:29.145Z,3.87
2023-01-31T14:07:25.808Z,3.58
2023-01-31T14:10:40.938Z,3.60
2023-01-31T14:13:40.571Z,3.70
2023-01-31T14:16:46.203Z,5.63
2023-01-31T14:20:05.116Z,3.30
2023-01-31T14:22:38.915Z,3.50
2023-01-31T14:25:17.082Z,3.57
2023-01-31T14:28:04.265Z,3.60
2023-01-31T14:30:43.432Z,3.60
2023-01-31T14:33:27.035Z,3.60
2023-01-31T14:36:36.639Z,4.33
2023-01-31T14:39:44.957Z,3.90
2023-01-31T14:43:03.957Z,3.95
2023-01-31T14:46:09.113Z,3.67
2023-01-31T14:49:10.493Z,3.50
2023-01-31T14:52:01.812Z,3.65
2023-01-31T14:55:01.250Z,4.25
2023-01-31T14:57:36.946Z,3.50
2023-01-31T15:00:10.258Z,4.00
2023-01-31T15:02:51.286Z,4.37
2023-01-31T15:05:42.006Z,4.03
2023-01-31T15:08:44.542Z,4.30
2023-01-31T15:11:43.033Z,4.17
2023-01-31T15:14:34.717Z,4.20
2023-01-31T15:17:32.052Z,4.33
2023-01-31T15:20:21.251Z,4.20
2023-01-31T15:22:59.006Z,4.80
2023-01-31T15:25:36.685Z,4.77
2023-01-31T15:28:08.496Z,4.90
2023-01-31T15:30:40.802Z,4.80
2023-01-31T15:33:19.115Z,4.60
2023-01-31T15:35:55.602Z,5.70
2023-01-31T15:38:35.221Z,5.00
2023-01-31T15:41:13.808Z,5.23
2023-01-31T15:43:44.196Z,4.70
2023-01-31T15:46:24.800Z,5.13
2023-01-31T15:48:55.541Z,4.55
2023-01-31T15:51:26.723Z,4.60
2023-01-31T15:54:10.250Z,4.55
2023-01-31T15:56:43.655Z,5.03
2023-01-31T15:59:16.957Z,4.77
2023-01-31T16:01:51.360Z,4.60
2023-01-31T16:04:22.045Z,4.20
2023-01-31T16:06:54.021Z,4.57
2023-01-31T16:09:34.377Z,5.13
2023-01-31T16:12:05.759Z,4.77
2023-01-31T16:14:38.015Z,4.70
2023-01-31T16:17:08.572Z,4.10
2023-01-31T16:19:38.958Z,4.10
2023-01-31T16:22:27.099Z,4.90
2023-01-31T16:25:02.929Z,3.70
2023-01-31T16:27:39.590Z,3.43
2023-01-31T16:30:18.909Z,3.67
2023-01-31T16:32:51.623Z,3.37
2023-01-31T16:35:27.072Z,3.30
2023-01-31T16:38:07.075Z,3.73
2023-01-31T16:40:49.023Z,4.10
2023-01-31T16:43:27.630Z,3.93
2023-01-31T16:46:01.634Z,3.27
2023-01-31T16:48:34.641Z,3.53
2023-01-31T16:51:43.640Z,3.13
2023-01-31T16:54:24.478Z,3.47
2023-01-31T16:57:24.833Z,3.60
2023-01-31T16:59:56.802Z,2.93
2023-01-31T17:02:32.892Z,3.63
2023-01-31T17:05:12.832Z,2.80
2023-01-31T17:07:48.978Z,3.33
2023-01-31T17:10:26.857Z,3.03
2023-01-31T17:13:05.187Z,2.80
2023-01-31T17:15:35.815Z,2.42
2023-01-31T17:18:06.422Z,2.78
2023-01-31T17:20:36.785Z,2.38
2023-01-31T17:23:07.522Z,2.53
2023-01-31T17:25:39.303Z,2.70
2023-01-31T17:28:13.942Z,2.90
2023-01-31T17:30:46.545Z,2.70
2023-01-31T17:33:18.185Z,2.50
2023-01-31T17:35:50.093Z,2.80
2023-01-31T17:38:21.034Z,2.70
2023-01-31T17:40:53.141Z,2.88
2023-01-31T17:43:26.314Z,2.63
2023-01-31T17:45:56.743Z,2.97
2023-01-31T17:48:27.243Z,3.00
2023-01-31T17:50:57.822Z,2.65
2023-01-31T17:53:32.145Z,2.53
2023-01-31T17:56:05.568Z,2.37
2023-01-31T17:58:38.675Z,2.55
2023-01-31T18:01:14.057Z,2.47
2023-01-31T18:03:45.169Z,3.37
2023-01-31T18:06:15.775Z,3.10
2023-01-31T18:08:46.209Z,3.03
2023-01-31T18:11:19.302Z,2.67
2023-01-31T18:13:52.309Z,2.87
2023-01-31T18:16:26.029Z,2.90
2023-01-31T18:18:58.219Z,3.10
2023-01-31T18:21:28.780Z,3.00
2023-01-31T18:24:01.750Z,2.53
2023-01-31T18:26:32.536Z,2.80
2023-01-31T18:29:05.825Z,2.90
2023-01-31T18:31:36.461Z,3.30
2023-01-31T18:34:07.101Z,2.55
2023-01-31T18:36:37.483Z,3.63
2023-01-31T18:39:07.887Z,2.40
2023-01-31T18:41:38.291Z,2.83
2023-01-31T18:44:11.648Z,2.47
2023-01-31T18:46:42.114Z,2.37
2023-01-31T18:49:12.625Z,2.73
2023-01-31T18:51:43.042Z,3.50
2023-01-31T18:54:13.499Z,2.58
2023-01-31T18:56:44.828Z,2.67
2023-01-31T18:59:17.765Z,2.78
2023-01-31T19:01:48.196Z,2.40
2023-01-31T19:04:18.491Z,2.20
2023-01-31T19:06:51.455Z,2.70
2023-01-31T19:09:22.599Z,2.65
2023-01-31T19:11:53.043Z,3.05
2023-01-31T19:14:26.021Z,2.37
2023-01-31T19:16:58.280Z,2.67
2023-01-31T19:19:29.167Z,2.30
2023-01-31T19:21:59.533Z,2.38
2023-01-31T19:24:30.174Z,2.17
2023-01-31T19:27:00.564Z,2.55
2023-01-31T19:29:33.509Z,2.27
2023-01-31T19:32:03.950Z,2.22
2023-01-31T19:34:36.443Z,2.20
2023-01-31T19:37:06.964Z,2.35
2023-01-31T19:39:37.627Z,2.17
2023-01-31T19:42:08.742Z,2.00
2023-01-31T19:44:41.739Z,1.90
2023-01-31T19:47:12.096Z,2.20
2023-01-31T19:49:42.400Z,1.70
2023-01-31T19:52:12.846Z,2.10
2023-01-31T19:54:43.251Z,2.30
2023-01-31T19:57:13.699Z,2.03
2023-01-31T19:59:47.029Z,1.90
2023-01-31T20:02:17.512Z,1.95
2023-01-31T20:04:48.111Z,2.20
2023-01-31T20:07:18.500Z,2.30
2023-01-31T20:09:48.767Z,2.00
2023-01-31T20:12:19.140Z,2.40
2023-01-31T20:14:52.096Z,2.00
2023-01-31T20:17:25.204Z,2.45
2023-01-31T20:19:55.598Z,2.42
2023-01-31T20:22:25.935Z,2.20
2023-01-31T20:24:57.225Z,1.93
2023-01-31T20:30:00.978Z,2.30
2023-01-31T20:32:31.291Z,2.20
2023-01-31T20:35:02.057Z,2.30
2023-01-31T20:37:33.603Z,2.05
2023-01-31T20:40:04.029Z,1.98
2023-01-31T20:42:35.830Z,2.13
2023-01-31T20:45:10.893Z,2.33
2023-01-31T20:47:41.262Z,2.40
2023-01-31T20:50:13.722Z,2.10
2023-01-31T20:52:44.049Z,2.38
2023-01-31T20:55:16.372Z,1.77
2023-01-31T20:57:50.040Z,2.28
2023-01-31T21:00:25.259Z,2.15
2023-01-31T21:02:55.573Z,2.03
2023-01-31T21:05:25.980Z,2.10
2023-01-31T21:07:56.425Z,2.10
2023-01-31T21:10:28.878Z,2.13
2023-01-31T21:12:59.220Z,2.30
2023-01-31T21:15:32.274Z,2.37
2023-01-31T21:18:02.651Z,2.13
2023-01-31T21:20:33.026Z,2.40
2023-01-31T21:23:03.331Z,2.20
2023-01-31T21:25:34.015Z,2.43
2023-01-31T21:28:04.697Z,2.45
2023-01-31T21:30:39.286Z,2.20
2023-01-31T21:33:09.610Z,2.00
2023-01-31T21:35:40.057Z,2.63
2023-01-31T21:38:10.430Z,2.40
2023-01-31T21:40:40.885Z,2.17
2023-01-31T21:43:08.594Z,2.20
2023-01-31T21:45:44.471Z,2.42
2023-01-31T21:48:27.615Z,2.45
2023-01-31T21:50:58.990Z,2.30
2023-01-31T21:53:29.416Z,3.03
2023-01-31T21:56:04.397Z,2.40
2023-01-31T21:58:35.186Z,2.90
2023-01-31T22:01:10.514Z,3.15
2023-01-31T22:03:42.715Z,2.38
2023-01-31T22:06:16.712Z,2.65
2023-01-31T22:08:47.330Z,2.60
2023-01-31T22:11:18.399Z,2.50
2023-01-31T22:13:53.156Z,2.53
2023-01-31T22:16:27.912Z,2.20
2023-01-31T22:18:58.450Z,2.97
2023-01-31T22:21:31.394Z,3.20
2023-01-31T22:24:04.201Z,2.50
2023-01-31T22:26:37.612Z,3.53
2023-01-31T22:29:10.759Z,3.13
2023-01-31T22:31:43.910Z,2.50
2023-01-31T22:34:17.795Z,2.90
2023-01-31T22:36:48.155Z,2.72
2023-01-31T22:39:18.720Z,3.10
2023-01-31T22:41:49.049Z,3.03
2023-01-31T22:44:19.341Z,2.70
2023-01-31T22:46:52.321Z,3.20
2023-01-31T22:49:22.980Z,2.95
2023-01-31T22:51:53.401Z,2.72
2023-01-31T22:54:23.898Z,2.97
2023-01-31T22:56:54.262Z,2.90
2023-01-31T22:59:24.854Z,3.33
2023-01-31T23:01:57.799Z,2.72
2023-01-31T23:04:28.200Z,2.60
2023-01-31T23:06:58.509Z,3.13
2023-01-31T23:09:28.808Z,2.80
2023-01-31T23:11:59.085Z,3.23
2023-01-31T23:14:29.441Z,2.93
2023-01-31T23:17:14.711Z,2.90
2023-01-31T23:19:45.055Z,2.75
2023-01-31T23:22:17.840Z,2.83
2023-01-31T23:24:48.069Z,3.05
2023-01-31T23:27:18.447Z,2.58
2023-01-31T23:29:48.772Z,3.07
2023-01-31T23:32:21.818Z,2.60
2023-01-31T23:34:52.911Z,2.67
2023-01-31T23:37:23.571Z,3.35
2023-01-31T23:39:54.209Z,3.10
2023-01-31T23:42:24.655Z,3.10
2023-01-31T23:44:55.053Z,3.30
2023-01-31T23:47:28.027Z,2.73
2023-01-31T23:49:58.340Z,2.90
2023-01-31T23:52:28.842Z,3.20
2023-01-31T23:54:59.267Z,3.20
2023-01-31T23:57:29.700Z,3.13
